Time;durP1;ratioP1;P1;durP2;ratioP2;P2;SDS_P1;SDS_P2;PMS_P1;PMS_P2;Temp;Humidity;BMP_temperature;BMP_pressure;BME280_temperature;BME280_humidity;BME280_pressure;Samples;Min_cycle;Max_cycle;Signal;HPM_P1;HPM_P2
2023/10/29 00:00:44;;;;;;;7.00;2.97;;;;;;;;;;5134761;27;19970;-81
2023/10/29 00:03:11;;;;;;;8.55;3.75;;;;;;;;;;5106743;27;20046;-81
2023/10/29 00:05:37;;;;;;;6.53;3.70;;;;;;;;;;5121359;27;20057;-81
2023/10/29 00:08:03;;;;;;;6.45;4.00;;;;;;;;;;5119929;27;20050;-81
2023/10/29 00:10:29;;;;;;;7.05;3.85;;;;;;;;;;5129622;27;20072;-80
2023/10/29 00:12:55;;;;;;;;;;;;;;;;;;5116757;27;20459;-82
2023/10/29 00:15:21;;;;;;;8.45;4.15;;;;;;;;;;5114480;27;19958;-80
2023/10/29 00:17:47;;;;;;;8.60;4.32;;;;;;;;;;5136722;27;20042;-80
2023/10/29 00:20:14;;;;;;;9.45;4.28;;;;;;;;;;5117532;27;20078;-79
2023/10/29 00:22:41;;;;;;;7.72;3.70;;;;;;;;;;5115327;27;20047;-79
2023/10/29 00:25:07;;;;;;;7.20;3.70;;;;;;;;;;5111413;27;20051;-79
2023/10/29 00:27:33;;;;;;;11.02;4.32;;;;;;;;;;5127068;27;20043;-79
2023/10/29 00:29:59;;;;;;;7.82;4.20;;;;;;;;;;5129735;27;20051;-82
2023/10/29 00:32:25;;;;;;;9.30;4.07;;;;;;;;;;5127545;27;20103;-79
2023/10/29 00:34:51;;;;;;;8.82;4.10;;;;;;;;;;5122928;27;20047;-80
2023/10/29 00:37:17;;;;;;;7.40;4.10;;;;;;;;;;5123871;27;20138;-80
2023/10/29 00:39:44;;;;;;;8.45;4.50;;;;;;;;;;5107820;27;20050;-81
2023/10/29 00:42:10;;;;;;;9.15;5.10;;;;;;;;;;5118483;27;20062;-81
2023/10/29 00:44:37;;;;;;;10.60;5.03;;;;;;;;;;5116486;27;20031;-81
2023/10/29 00:47:04;;;;;;;9.07;4.75;;;;;;;;;;5117753;27;20410;-80
2023/10/29 00:49:30;;;;;;;6.80;4.47;;;;;;;;;;5115245;27;20050;-81
2023/10/29 00:51:56;;;;;;;7.63;4.22;;;;;;;;;;5131566;27;20042;-80
2023/10/29 00:54:22;;;;;;;7.82;4.20;;;;;;;;;;5101408;27;20043;-80
2023/10/29 00:56:48;;;;;;;;;;;;;;;;;;5114761;27;20039;-80
2023/10/29 00:59:14;;;;;;;9.07;4.47;;;;;;;;;;5124436;27;19918;-80
2023/10/29 01:01:41;;;;;;;8.95;4.30;;;;;;;;;;5114198;27;20088;-80
2023/10/29 01:04:08;;;;;;;8.93;4.35;;;;;;;;;;5122634;27;20042;-80
2023/10/29 01:06:38;;;;;;;11.52;4.97;;;;;;;;;;5114065;27;20078;-80
2023/10/29 01:09:05;;;;;;;8.25;4.68;;;;;;;;;;5122383;27;20047;-81
2023/10/29 01:11:32;;;;;;;9.88;4.30;;;;;;;;;;5115797;27;20395;-80
2023/10/29 01:13:58;;;;;;;6.75;3.80;;;;;;;;;;5121636;27;20042;-81
2023/10/29 01:16:24;;;;;;;9.70;4.05;;;;;;;;;;5135097;27;20115;-80
2023/10/29 01:18:51;;;;;;;10.75;4.10;;;;;;;;;;5097957;27;20081;-80
2023/10/29 01:21:17;;;;;;;;;;;;;;;;;;5105388;27;20130;-81
2023/10/29 01:23:43;;;;;;;10.05;4.05;;;;;;;;;;5131914;27;20380;-81
2023/10/29 01:26:09;;;;;;;6.35;3.80;;;;;;;;;;5114941;27;20076;-80
2023/10/29 01:28:35;;;;;;;7.82;3.90;;;;;;;;;;5118581;27;20113;-80
2023/10/29 01:31:02;;;;;;;8.18;4.00;;;;;;;;;;5114960;27;20054;-80
2023/10/29 01:33:27;;;;;;;;;;;;;;;;;;5098950;27;20046;-80
2023/10/29 01:35:53;;;;;;;5.93;2.97;;;;;;;;;;5134889;27;20051;-80
2023/10/29 01:38:19;;;;;;;;;;;;;;;;;;5113218;27;20476;-80
2023/10/29 01:40:45;;;;;;;7.30;3.40;;;;;;;;;;5124828;27;19971;-80
2023/10/29 01:43:11;;;;;;;;;;;;;;;;;;5135048;27;20047;-80
2023/10/29 01:45:38;;;;;;;5.82;3.40;;;;;;;;;;5133695;27;19941;-79
2023/10/29 01:48:04;;;;;;;6.82;3.00;;;;;;;;;;5114815;27;20047;-80
2023/10/29 01:50:30;;;;;;;6.80;2.65;;;;;;;;;;5114262;27;20629;-80
2023/10/29 01:52:57;;;;;;;5.97;3.35;;;;;;;;;;5113655;27;20400;-80
2023/10/29 01:55:23;;;;;;;7.10;2.90;;;;;;;;;;5112310;27;20043;-80
2023/10/29 01:57:49;;;;;;;5.00;3.00;;;;;;;;;;5133814;27;20035;-80
2023/10/29 02:00:15;;;;;;;5.47;2.50;;;;;;;;;;5134848;27;20043;-80
2023/10/29 02:02:41;;;;;;;4.35;2.30;;;;;;;;;;5135162;27;20034;-80
2023/10/29 02:05:07;;;;;;;;;;;;;;;;;;5118779;27;20038;-80
2023/10/29 02:07:34;;;;;;;5.53;2.47;;;;;;;;;;5116399;27;20773;-80
2023/10/29 02:10:00;;;;;;;7.50;2.80;;;;;;;;;;5100009;27;20065;-80
2023/10/29 02:12:26;;;;;;;;;;;;;;;;;;5099073;28;20043;-80
2023/10/29 02:14:52;;;;;;;4.68;2.40;;;;;;;;;;5098592;28;19972;-80
2023/10/29 02:17:18;;;;;;;5.55;2.10;;;;;;;;;;5097036;28;20050;-80
2023/10/29 02:19:44;;;;;;;;;;;;;;;;;;5115062;28;20043;-80
2023/10/29 02:22:10;;;;;;;4.90;2.00;;;;;;;;;;5097021;28;20380;-80
2023/10/29 02:24:36;;;;;;;;;;;;;;;;;;5097381;28;20047;-80
2023/10/29 02:27:02;;;;;;;6.13;1.88;;;;;;;;;;5113524;28;19923;-79
2023/10/29 02:29:28;;;;;;;;;;;;;;;;;;5115486;27;20075;-80
2023/10/29 02:31:54;;;;;;;5.63;2.20;;;;;;;;;;5118663;28;19923;-80
2023/10/29 02:34:20;;;;;;;4.25;2.40;;;;;;;;;;5096932;28;20138;-80
2023/10/29 02:36:46;;;;;;;;;;;;;;;;;;5114161;28;20039;-80
2023/10/29 02:39:13;;;;;;;5.30;2.00;;;;;;;;;;5124429;27;19922;-80
2023/10/29 02:41:39;;;;;;;4.72;2.10;;;;;;;;;;5112707;28;20090;-81
2023/10/29 02:44:05;;;;;;;;;;;;;;;;;;5132049;28;20122;-80
2023/10/29 02:46:31;;;;;;;6.13;2.28;;;;;;;;;;5130862;28;19966;-80
2023/10/29 02:48:57;;;;;;;;;;;;;;;;;;5114871;28;20043;-80
2023/10/29 02:51:23;;;;;;;8.10;2.00;;;;;;;;;;5130235;28;19942;-80
2023/10/29 02:53:49;;;;;;;;;;;;;;;;;;5124554;28;20135;-80
2023/10/29 02:56:15;;;;;;;5.22;2.15;;;;;;;;;;5093502;28;20039;-83
2023/10/29 02:58:41;;;;;;;;;;;;;;;;;;5126341;28;20527;-80
2023/10/29 03:01:08;;;;;;;6.47;2.20;;;;;;;;;;5113645;28;20003;-80
2023/10/29 03:03:35;;;;;;;5.38;1.92;;;;;;;;;;5112363;28;20043;-80
2023/10/29 03:06:05;;;;;;;4.30;1.77;;;;;;;;;;5114047;28;20050;-79
2023/10/29 03:08:31;;;;;;;5.05;1.67;;;;;;;;;;5132411;27;20396;-80
2023/10/29 03:10:57;;;;;;;;;;;;;;;;;;5108024;28;20054;-79
2023/10/29 03:13:23;;;;;;;4.22;1.80;;;;;;;;;;5114030;28;19923;-80
2023/10/29 03:15:49;;;;;;;;;;;;;;;;;;5108113;28;20048;-80
2023/10/29 03:18:15;;;;;;;2.47;1.75;;;;;;;;;;5120865;27;19942;-80
2023/10/29 03:20:41;;;;;;;;;;;;;;;;;;5134661;27;20480;-79
2023/10/29 03:23:07;;;;;;;5.28;1.80;;;;;;;;;;5116154;27;19927;-80
2023/10/29 03:25:33;;;;;;;3.90;1.70;;;;;;;;;;5099272;27;20047;-80
2023/10/29 03:27:59;;;;;;;4.65;1.58;;;;;;;;;;5134673;27;20039;-79
2023/10/29 03:30:25;;;;;;;5.93;1.70;;;;;;;;;;5107844;28;20043;-80
2023/10/29 03:32:51;;;;;;;;;;;;;;;;;;5114493;28;20079;-80
2023/10/29 03:35:18;;;;;;;2.22;1.50;;;;;;;;;;5122390;27;19959;-80
2023/10/29 03:37:44;;;;;;;3.42;1.60;;;;;;;;;;5116600;27;20047;-80
2023/10/29 03:40:10;;;;;;;;;;;;;;;;;;5119756;27;20047;-80
2023/10/29 03:42:36;;;;;;;3.20;1.60;;;;;;;;;;5112713;28;19926;-80
2023/10/29 03:45:03;;;;;;;;;;;;;;;;;;5114325;28;20052;-80
2023/10/29 03:47:29;;;;;;;5.63;1.83;;;;;;;;;;5113365;28;19934;-80
2023/10/29 03:49:55;;;;;;;;;;;;;;;;;;5097357;28;20043;-80
2023/10/29 03:52:22;;;;;;;3.92;1.60;;;;;;;;;;5095429;28;19973;-82
2023/10/29 03:54:48;;;;;;;4.03;1.60;;;;;;;;;;5109905;28;20047;-81
2023/10/29 03:57:14;;;;;;;4.43;1.40;;;;;;;;;;5119771;27;20123;-80
2023/10/29 03:59:40;;;;;;;3.70;1.60;;;;;;;;;;5100921;28;20051;-81
2023/10/29 04:02:07;;;;;;;4.18;1.40;;;;;;;;;;5098806;27;20039;-81
2023/10/29 04:04:33;;;;;;;3.22;1.20;;;;;;;;;;5126135;27;20052;-80
2023/10/29 04:07:00;;;;;;;3.47;1.40;;;;;;;;;;5098898;27;20103;-80
2023/10/29 04:09:26;;;;;;;3.05;1.58;;;;;;;;;;5115739;27;20059;-80
2023/10/29 04:11:53;;;;;;;3.22;1.67;;;;;;;;;;5115950;27;20047;-79
2023/10/29 04:14:18;;;;;;;;;;;;;;;;;;5117357;27;20467;-80
2023/10/29 04:16:45;;;;;;;2.75;1.23;;;;;;;;;;5116124;27;19958;-80
2023/10/29 04:19:11;;;;;;;3.88;1.55;;;;;;;;;;5132692;27;20044;-79
2023/10/29 04:21:37;;;;;;;;;;;;;;;;;;5115850;27;20051;-80
2023/10/29 04:24:03;;;;;;;4.88;1.38;;;;;;;;;;5133025;27;19923;-81
2023/10/29 04:26:29;;;;;;;4.40;1.23;;;;;;;;;;5125712;27;20400;-80
2023/10/29 04:28:55;;;;;;;6.63;1.30;;;;;;;;;;5131637;27;20039;-80
2023/10/29 04:31:21;;;;;;;;;;;;;;;;;;5133744;27;20158;-80
2023/10/29 04:33:48;;;;;;;4.05;1.33;;;;;;;;;;5109257;28;19924;-81
2023/10/29 04:36:24;;;;;;;4.78;1.27;;;;;;;;;;5095716;28;20576;-80
2023/10/29 04:38:51;;;;;;;2.13;1.40;;;;;;;;;;5112635;28;20047;-79
2023/10/29 04:41:17;;;;;;;2.20;1.20;;;;;;;;;;5111166;28;20485;-79
2023/10/29 04:43:43;;;;;;;4.70;1.35;;;;;;;;;;5111934;28;20044;-81
2023/10/29 04:46:13;;;;;;;3.88;1.20;;;;;;;;;;5112598;28;20047;-79
2023/10/29 04:48:40;;;;;;;3.95;1.23;;;;;;;;;;5111725;28;20047;-79
2023/10/29 04:51:09;;;;;;;1.02;0.98;;;;;;;;;;5113620;27;20085;-80
2023/10/29 04:53:35;;;;;;;2.95;0.93;;;;;;;;;;5131577;27;20047;-80
2023/10/29 04:56:02;;;;;;;3.92;1.40;;;;;;;;;;5103630;28;20126;-80
2023/10/29 04:58:29;;;;;;;3.55;1.10;;;;;;;;;;5102230;27;20468;-83
2023/10/29 05:00:56;;;;;;;1.50;1.20;;;;;;;;;;5132596;27;20074;-80
2023/10/29 05:03:22;;;;;;;2.70;1.25;;;;;;;;;;5094910;28;20122;-79
2023/10/29 05:05:49;;;;;;;2.88;1.10;;;;;;;;;;5077957;28;20050;-80
2023/10/29 05:08:15;;;;;;;5.70;1.35;;;;;;;;;;5077906;28;20138;-80
2023/10/29 05:10:45;;;;;;;;;;;;;;;;;;5094395;28;20039;-80
2023/10/29 05:13:11;;;;;;;2.47;1.08;;;;;;;;;;5130190;27;20006;-79
2023/10/29 05:15:37;;;;;;;1.20;0.98;;;;;;;;;;5094786;28;20040;-80
2023/10/29 05:18:03;;;;;;;1.38;0.90;;;;;;;;;;5078251;28;20477;-80
2023/10/29 05:20:29;;;;;;;;;;;;;;;;;;5115049;27;20050;-83
2023/10/29 05:22:56;;;;;;;1.75;1.00;;;;;;;;;;5131130;27;20421;-80
2023/10/29 05:25:21;;;;;;;;;;;;;;;;;;5114686;27;20050;-80
2023/10/29 05:27:54;;;;;;;2.25;1.00;;;;;;;;;;5131877;27;19920;-80
2023/10/29 05:30:21;;;;;;;1.42;0.90;;;;;;;;;;5132273;27;20047;-80
2023/10/29 05:32:47;;;;;;;4.03;1.15;;;;;;;;;;5112925;27;20062;-81
2023/10/29 05:35:13;;;;;;;;;;;;;;;;;;5095112;28;20055;-81
2023/10/29 05:37:39;;;;;;;2.05;1.00;;;;;;;;;;5093115;28;19926;-80
2023/10/29 05:40:07;;;;;;;2.85;0.93;;;;;;;;;;5111471;28;20162;-79
2023/10/29 05:42:33;;;;;;;3.42;1.00;;;;;;;;;;5110346;28;20062;-82
2023/10/29 05:45:00;;;;;;;3.55;1.40;;;;;;;;;;5111324;28;20128;-80
2023/10/29 05:47:26;;;;;;;2.22;1.02;;;;;;;;;;5111238;28;20044;-80
2023/10/29 05:49:52;;;;;;;3.05;0.93;;;;;;;;;;5110880;28;20079;-80
2023/10/29 05:52:18;;;;;;;2.00;0.90;;;;;;;;;;5118074;27;20040;-80
2023/10/29 05:54:44;;;;;;;;;;;;;;;;;;5077657;28;20054;-79
2023/10/29 05:57:11;;;;;;;2.65;1.10;;;;;;;;;;5110940;28;20310;-79
2023/10/29 05:59:37;;;;;;;2.05;1.00;;;;;;;;;;5094435;28;20134;-81
2023/10/29 06:02:03;;;;;;;;;;;;;;;;;;5111625;28;20047;-81
2023/10/29 06:04:29;;;;;;;3.10;1.30;;;;;;;;;;5125219;27;20360;-79
2023/10/29 06:06:55;;;;;;;;;;;;;;;;;;5093343;28;20043;-80
2023/10/29 06:09:21;;;;;;;3.42;1.20;;;;;;;;;;5111281;28;19927;-80
2023/10/29 06:11:47;;;;;;;;;;;;;;;;;;5093516;28;20078;-80
2023/10/29 06:14:13;;;;;;;2.85;1.02;;;;;;;;;;5094485;28;20390;-79
2023/10/29 06:16:39;;;;;;;;;;;;;;;;;;5111886;28;20044;-80
2023/10/29 06:19:05;;;;;;;1.70;1.10;;;;;;;;;;5119528;28;19919;-80
2023/10/29 06:21:31;;;;;;;;;;;;;;;;;;5094074;28;20048;-79
2023/10/29 06:23:57;;;;;;;3.17;0.95;;;;;;;;;;5100904;28;20657;-80
2023/10/29 06:26:23;;;;;;;;;;;;;;;;;;5113996;28;20050;-80
2023/10/29 06:28:49;;;;;;;3.42;1.00;;;;;;;;;;5131087;28;19919;-81
2023/10/29 06:31:15;;;;;;;;;;;;;;;;;;5115013;28;20058;-81
2023/10/29 06:33:42;;;;;;;6.35;0.90;;;;;;;;;;5130639;28;19919;-80
2023/10/29 06:36:08;;;;;;;4.13;1.08;;;;;;;;;;5114244;28;20488;-79
2023/10/29 06:38:35;;;;;;;3.83;0.95;;;;;;;;;;5113844;28;20043;-79
2023/10/29 06:41:02;;;;;;;6.90;1.17;;;;;;;;;;5096311;28;20062;-80
2023/10/29 06:43:28;;;;;;;3.88;1.08;;;;;;;;;;5122989;27;20493;-80
2023/10/29 06:45:54;;;;;;;5.43;1.23;;;;;;;;;;5114490;28;20396;-79
2023/10/29 06:48:20;;;;;;;3.00;1.00;;;;;;;;;;5114811;28;20040;-79
2023/10/29 06:50:46;;;;;;;;;;;;;;;;;;5116387;27;20036;-79
2023/10/29 06:53:12;;;;;;;3.03;1.20;;;;;;;;;;5113906;28;20436;-79
2023/10/29 06:55:40;;;;;;;;;;;;;;;;;;5097353;28;20079;-80
2023/10/29 06:58:06;;;;;;;4.65;1.20;;;;;;;;;;5114191;28;19926;-80
2023/10/29 07:00:32;;;;;;;;;;;;;;;;;;5104807;28;20040;-79
2023/10/29 07:02:59;;;;;;;3.28;1.40;;;;;;;;;;5128272;27;20021;-79
2023/10/29 07:05:25;;;;;;;3.08;1.08;;;;;;;;;;5128418;27;20043;-80
2023/10/29 07:07:51;;;;;;;5.88;1.25;;;;;;;;;;5095975;28;20134;-80
2023/10/29 07:10:18;;;;;;;;;;;;;;;;;;5097129;28;20482;-80
2023/10/29 07:12:44;;;;;;;2.90;1.00;;;;;;;;;;5114180;28;19920;-81
2023/10/29 07:15:10;;;;;;;3.60;1.17;;;;;;;;;;5113849;28;20047;-80
2023/10/29 07:17:36;;;;;;;1.08;0.80;;;;;;;;;;5097031;28;20044;-80
2023/10/29 07:20:04;;;;;;;;;;;;;;;;;;5115363;27;20047;-80
2023/10/29 07:22:30;;;;;;;;;;;;;;;;;;5130317;27;19923;-80
2023/10/29 07:24:56;;;;;;;3.28;1.10;;;;;;;;;;5128436;27;20111;-80
2023/10/29 07:27:22;;;;;;;3.95;1.20;;;;;;;;;;5133800;27;20046;-80
2023/10/29 07:29:48;;;;;;;3.72;0.95;;;;;;;;;;5106909;27;20047;-80
2023/10/29 07:32:14;;;;;;;;;;;;;;;;;;5114622;27;20050;-80
2023/10/29 07:34:40;;;;;;;4.60;1.23;;;;;;;;;;5130886;27;19920;-80
2023/10/29 07:37:06;;;;;;;;;;;;;;;;;;5130244;27;20032;-80
2023/10/29 07:39:32;;;;;;;4.03;0.85;;;;;;;;;;5113659;28;19977;-79
2023/10/29 07:41:58;;;;;;;3.00;1.10;;;;;;;;;;5077812;28;20052;-80
2023/10/29 07:44:24;;;;;;;;;;;;;;;;;;5133691;27;20492;-80
2023/10/29 07:46:50;;;;;;;4.68;1.00;;;;;;;;;;5133929;27;19920;-80
2023/10/29 07:49:16;;;;;;;;;;;;;;;;;;5116532;27;20081;-80
2023/10/29 07:51:43;;;;;;;3.35;0.90;;;;;;;;;;5133854;27;20005;-80
2023/10/29 07:54:09;;;;;;;7.57;1.40;;;;;;;;;;5098301;27;20099;-80
2023/10/29 07:56:35;;;;;;;;;;;;;;;;;;5116667;27;20054;-80
2023/10/29 07:59:01;;;;;;;5.03;0.80;;;;;;;;;;5133804;27;19919;-79
2023/10/29 08:01:27;;;;;;;;;;;;;;;;;;5114722;27;20046;-80
2023/10/29 08:03:55;;;;;;;5.65;1.00;;;;;;;;;;5096399;28;19926;-80
2023/10/29 08:06:22;;;;;;;6.25;1.02;;;;;;;;;;5095811;28;20047;-80
2023/10/29 08:08:48;;;;;;;;;;;;;;;;;;5103478;27;20051;-80
2023/10/29 08:11:20;;;;;;;5.53;1.10;;;;;;;;;;5115745;27;19926;-79
2023/10/29 08:13:46;;;;;;;4.82;1.05;;;;;;;;;;5100320;27;20054;-80
2023/10/29 08:16:17;;;;;;;3.13;1.13;;;;;;;;;;5122345;27;20123;-81
2023/10/29 08:18:43;;;;;;;3.53;1.05;;;;;;;;;;5129635;27;20043;-80
2023/10/29 08:21:09;;;;;;;;;;;;;;;;;;5116378;27;20870;-79
2023/10/29 08:23:35;;;;;;;2.40;0.80;;;;;;;;;;5132803;27;20009;-80
2023/10/29 08:26:01;;;;;;;;;;;;;;;;;;5114612;27;20438;-78
2023/10/29 08:28:27;;;;;;;2.72;1.00;;;;;;;;;;5131153;27;19930;-79
2023/10/29 08:30:54;;;;;;;3.45;0.95;;;;;;;;;;5112391;28;20601;-79
2023/10/29 08:33:20;;;;;;;4.15;0.90;;;;;;;;;;5095502;28;20476;-80
2023/10/29 08:35:46;;;;;;;;;;;;;;;;;;5096360;28;20050;-80
2023/10/29 08:38:12;;;;;;;4.30;1.20;;;;;;;;;;5130633;27;19923;-80
2023/10/29 08:40:38;;;;;;;;;;;;;;;;;;5116940;27;20058;-79
2023/10/29 08:43:05;;;;;;;3.47;1.00;;;;;;;;;;5135797;27;19919;-79
2023/10/29 08:45:31;;;;;;;7.35;1.20;;;;;;;;;;5119573;27;20039;-79
2023/10/29 08:47:57;;;;;;;;;;;;;;;;;;5136435;27;20038;-80
2023/10/29 08:50:23;;;;;;;5.93;1.20;;;;;;;;;;5135074;27;19934;-80
2023/10/29 08:52:49;;;;;;;8.05;1.20;;;;;;;;;;5128357;27;20090;-80
2023/10/29 08:55:15;;;;;;;8.23;1.02;;;;;;;;;;5115026;27;20367;-80
2023/10/29 08:57:42;;;;;;;;;;;;;;;;;;5111779;27;20100;-81
2023/10/29 09:00:08;;;;;;;6.43;1.35;;;;;;;;;;5136123;27;19919;-80
2023/10/29 09:02:34;;;;;;;4.68;1.10;;;;;;;;;;5136132;27;20042;-81
2023/10/29 09:05:01;;;;;;;5.35;1.33;;;;;;;;;;5101461;27;20049;-80
2023/10/29 09:07:27;;;;;;;5.90;1.10;;;;;;;;;;5135898;27;20047;-82
2023/10/29 09:09:54;;;;;;;6.57;1.50;;;;;;;;;;5118610;27;20087;-82
2023/10/29 09:12:21;;;;;;;8.05;1.45;;;;;;;;;;5121461;27;20047;-83
2023/10/29 09:14:47;;;;;;;5.50;1.40;;;;;;;;;;5131911;27;20043;-81
2023/10/29 09:17:13;;;;;;;;;;;;;;;;;;5136039;27;20372;-79
2023/10/29 09:19:40;;;;;;;6.40;1.30;;;;;;;;;;5118808;27;19925;-82
2023/10/29 09:22:06;;;;;;;6.53;1.50;;;;;;;;;;5120103;27;20388;-80
2023/10/29 09:24:32;;;;;;;8.77;1.15;;;;;;;;;;5115244;27;20058;-83
2023/10/29 09:26:58;;;;;;;;;;;;;;;;;;5098003;27;20095;-79
2023/10/29 09:29:25;;;;;;;7.32;1.15;;;;;;;;;;5115316;27;19924;-77
2023/10/29 09:31:52;;;;;;;8.65;1.55;;;;;;;;;;5115250;27;20484;-78
2023/10/29 09:34:18;;;;;;;5.00;1.30;;;;;;;;;;5097553;27;20605;-79
2023/10/29 09:36:44;;;;;;;6.38;1.40;;;;;;;;;;5133114;27;20046;-82
2023/10/29 09:39:10;;;;;;;;;;;;;;;;;;5113054;27;20051;-82
2023/10/29 09:41:38;;;;;;;12.60;1.90;;;;;;;;;;5124531;27;19963;-82
2023/10/29 09:44:10;;;;;;;5.45;1.70;;;;;;;;;;5121627;27;20092;-83
2023/10/29 09:46:37;;;;;;;8.05;1.75;;;;;;;;;;5130735;27;20122;-81
2023/10/29 09:49:03;;;;;;;7.93;1.50;;;;;;;;;;5108743;27;20436;-83
2023/10/29 09:51:30;;;;;;;8.13;1.63;;;;;;;;;;5133380;27;20460;-83
2023/10/29 09:54:00;;;;;;;7.72;1.98;;;;;;;;;;5134244;27;20150;-83
2023/10/29 09:56:26;;;;;;;8.80;1.20;;;;;;;;;;5113971;27;20057;-82
2023/10/29 09:58:52;;;;;;;6.75;1.38;;;;;;;;;;5132625;27;20050;-83
2023/10/29 10:01:19;;;;;;;7.82;1.55;;;;;;;;;;5101989;27;21673;-83
2023/10/29 10:03:45;;;;;;;;;;;;;;;;;;5113493;27;20376;-83
2023/10/29 10:06:14;;;;;;;9.35;1.58;;;;;;;;;;5114971;27;19919;-82
2023/10/29 10:08:40;;;;;;;9.27;1.50;;;;;;;;;;5126994;27;20054;-83
2023/10/29 10:11:21;;;;;;;7.03;1.42;;;;;;;;;;5103401;27;20054;-84
2023/10/29 10:13:47;;;;;;;10.77;1.70;;;;;;;;;;5107459;28;20066;-84
2023/10/29 10:16:14;;;;;;;;;;;;;;;;;;5114169;28;20047;-84
2023/10/29 10:18:47;;;;;;;5.75;1.48;;;;;;;;;;5116345;27;19958;-83
2023/10/29 10:21:13;;;;;;;6.85;1.75;;;;;;;;;;5103388;27;20047;-83
2023/10/29 10:23:46;;;;;;;7.30;1.58;;;;;;;;;;5091976;28;20044;-83
2023/10/29 10:26:14;;;;;;;9.23;1.67;;;;;;;;;;5094711;27;20127;-83
2023/10/29 10:29:00;;;;;;;5.93;1.42;;;;;;;;;;5134729;27;20050;-83
2023/10/29 10:31:31;;;;;;;7.60;1.55;;;;;;;;;;5130926;27;20452;-83
2023/10/29 10:34:15;;;;;;;9.15;1.75;;;;;;;;;;5132412;27;20448;-84
2023/10/29 10:36:42;;;;;;;7.00;1.48;;;;;;;;;;5110078;28;20092;-84
2023/10/29 10:39:08;;;;;;;4.93;1.80;;;;;;;;;;5108306;28;20082;-84
2023/10/29 10:41:48;;;;;;;6.70;1.58;;;;;;;;;;5094615;27;20047;-83
2023/10/29 10:44:15;;;;;;;7.32;1.50;;;;;;;;;;5115646;27;20062;-83
2023/10/29 10:46:47;;;;;;;6.47;1.40;;;;;;;;;;5116900;27;20091;-83
2023/10/29 10:49:14;;;;;;;7.22;1.30;;;;;;;;;;5098759;28;20047;-82
2023/10/29 10:51:40;;;;;;;7.35;1.58;;;;;;;;;;5119410;28;20100;-83
2023/10/29 10:54:07;;;;;;;7.05;1.48;;;;;;;;;;5117765;27;20095;-83
2023/10/29 10:56:37;;;;;;;9.77;1.73;;;;;;;;;;5132829;27;20047;-83
2023/10/29 10:59:13;;;;;;;7.57;1.55;;;;;;;;;;5117191;27;20057;-83
2023/10/29 11:01:39;;;;;;;7.10;1.70;;;;;;;;;;5109469;27;20137;-84
2023/10/29 11:04:08;;;;;;;10.13;1.73;;;;;;;;;;5114476;27;20040;-83
2023/10/29 11:06:36;;;;;;;10.65;2.22;;;;;;;;;;5133011;27;20181;-84
2023/10/29 11:09:02;;;;;;;7.78;1.58;;;;;;;;;;5123649;27;20039;-83
2023/10/29 11:11:37;;;;;;;11.02;1.65;;;;;;;;;;5097585;27;20047;-84
2023/10/29 11:14:14;;;;;;;6.88;1.42;;;;;;;;;;5109459;28;20050;-81
2023/10/29 11:16:47;;;;;;;6.10;1.30;;;;;;;;;;5110053;27;20046;-82
2023/10/29 11:19:31;;;;;;;7.78;1.60;;;;;;;;;;5120619;28;20182;-84
2023/10/29 11:22:13;;;;;;;7.45;1.35;;;;;;;;;;5143062;27;20035;-85
2023/10/29 11:24:40;;;;;;;5.25;1.30;;;;;;;;;;5128489;27;20122;-82
2023/10/29 11:27:25;;;;;;;5.68;1.40;;;;;;;;;;5117295;27;20041;-83
2023/10/29 11:29:51;;;;;;;6.28;1.15;;;;;;;;;;5117081;27;20066;-84
2023/10/29 11:32:17;;;;;;;;;;;;;;;;;;5104209;27;20058;-86
2023/10/29 11:34:43;;;;;;;3.25;1.15;;;;;;;;;;5130105;27;19927;-83
2023/10/29 11:37:09;;;;;;;;;;;;;;;;;;5103207;27;20046;-86
2023/10/29 11:39:36;;;;;;;9.60;1.55;;;;;;;;;;5125922;27;19926;-84
2023/10/29 11:42:22;;;;;;;6.50;1.27;;;;;;;;;;5124647;27;20555;-88
2023/10/29 11:44:48;;;;;;;7.07;1.63;;;;;;;;;;5108440;27;20047;-85
2023/10/29 11:47:14;;;;;;;11.57;1.70;;;;;;;;;;5136981;27;20080;-83
2023/10/29 11:49:40;;;;;;;;;;;;;;;;;;5088458;27;20089;-84
2023/10/29 11:52:06;;;;;;;4.30;1.50;;;;;;;;;;5118122;27;19923;-84
2023/10/29 11:54:32;;;;;;;6.40;1.55;;;;;;;;;;5099779;27;20047;-83
2023/10/29 11:56:59;;;;;;;4.97;1.63;;;;;;;;;;5115021;27;20047;-84
2023/10/29 11:59:26;;;;;;;6.15;1.50;;;;;;;;;;5135690;27;20050;-84
2023/10/29 12:01:53;;;;;;;6.63;1.42;;;;;;;;;;5116866;27;20039;-84
2023/10/29 12:04:19;;;;;;;5.68;1.48;;;;;;;;;;5104238;27;20082;-86
2023/10/29 12:06:45;;;;;;;;;;;;;;;;;;5113531;27;20050;-85
2023/10/29 12:09:21;;;;;;;12.18;1.75;;;;;;;;;;5113756;27;19967;-85
2023/10/29 12:11:54;;;;;;;5.88;1.20;;;;;;;;;;5115813;27;20486;-86
2023/10/29 12:14:43;;;;;;;8.20;1.27;;;;;;;;;;5115406;27;20089;-87
2023/10/29 12:17:10;;;;;;;7.30;1.88;;;;;;;;;;5137092;27;20038;-85
2023/10/29 12:19:46;;;;;;;6.55;1.20;;;;;;;;;;5119543;27;20134;-85
2023/10/29 12:22:16;;;;;;;6.20;1.40;;;;;;;;;;5119532;27;20058;-84
2023/10/29 12:24:42;;;;;;;10.23;1.73;;;;;;;;;;5119336;27;20843;-86
2023/10/29 12:27:09;;;;;;;7.97;1.52;;;;;;;;;;5123475;27;20035;-85
2023/10/29 12:29:35;;;;;;;;;;;;;;;;;;5129958;27;20061;-84
2023/10/29 12:32:01;;;;;;;10.02;1.70;;;;;;;;;;5104989;27;20360;-84
2023/10/29 12:34:27;;;;;;;;;;;;;;;;;;5114017;27;20169;-85
2023/10/29 12:36:54;;;;;;;6.78;1.42;;;;;;;;;;5127126;27;19926;-85
2023/10/29 12:39:20;;;;;;;11.02;1.45;;;;;;;;;;5123731;27;20125;-84
2023/10/29 12:41:53;;;;;;;5.68;1.40;;;;;;;;;;5093639;28;20205;-84
2023/10/29 12:44:19;;;;;;;8.77;1.67;;;;;;;;;;5146561;27;20047;-85
2023/10/29 12:46:46;;;;;;;;;;;;;;;;;;5112559;28;20044;-85
2023/10/29 12:49:12;;;;;;;7.40;1.73;;;;;;;;;;5112859;27;20007;-84
2023/10/29 12:51:39;;;;;;;;;;;;;;;;;;5130297;27;20046;-83
2023/10/29 12:54:11;;;;;;;8.15;1.92;;;;;;;;;;5118424;27;19919;-82
2023/10/29 12:56:52;;;;;;;12.65;1.70;;;;;;;;;;5119338;27;20052;-82
2023/10/29 12:59:27;;;;;;;6.53;1.45;;;;;;;;;;5129546;27;20032;-83
2023/10/29 13:01:54;;;;;;;9.65;1.70;;;;;;;;;;5126753;27;20047;-82
2023/10/29 13:04:23;;;;;;;8.48;1.55;;;;;;;;;;5112140;28;20489;-82
2023/10/29 13:06:49;;;;;;;7.95;1.38;;;;;;;;;;5109878;27;20074;-83
2023/10/29 13:09:20;;;;;;;7.18;1.50;;;;;;;;;;5129600;27;20058;-83
2023/10/29 13:11:51;;;;;;;14.02;1.90;;;;;;;;;;5098115;27;20726;-82
2023/10/29 13:14:18;;;;;;;10.00;1.80;;;;;;;;;;5132714;27;20053;-81
2023/10/29 13:16:44;;;;;;;7.35;1.40;;;;;;;;;;5127566;27;20052;-82
2023/10/29 13:19:13;;;;;;;;;;;;;;;;;;5139968;27;20039;-83
2023/10/29 13:21:40;;;;;;;8.38;1.60;;;;;;;;;;5106677;28;19924;-83
2023/10/29 13:24:07;;;;;;;8.07;1.42;;;;;;;;;;5123425;27;20077;-84
2023/10/29 13:26:33;;;;;;;8.05;1.92;;;;;;;;;;5131621;27;20047;-82
2023/10/29 13:29:00;;;;;;;;;;;;;;;;;;5117783;27;20048;-81
2023/10/29 13:31:27;;;;;;;6.22;1.50;;;;;;;;;;5112732;28;19919;-81
2023/10/29 13:33:53;;;;;;;10.05;1.70;;;;;;;;;;5126057;27;20091;-81
2023/10/29 13:36:21;;;;;;;7.30;1.67;;;;;;;;;;5111290;27;20088;-82
2023/10/29 13:38:47;;;;;;;7.60;1.48;;;;;;;;;;5097978;28;20043;-82
2023/10/29 13:41:13;;;;;;;7.07;1.60;;;;;;;;;;5123246;27;20051;-82
2023/10/29 13:43:39;;;;;;;;;;;;;;;;;;5109570;27;20382;-80
2023/10/29 13:46:06;;;;;;;6.00;1.70;;;;;;;;;;5114719;27;19926;-81
2023/10/29 13:48:32;;;;;;;6.13;1.70;;;;;;;;;;5131263;27;20051;-82
2023/10/29 13:51:08;;;;;;;7.45;2.28;;;;;;;;;;5131987;27;20499;-82
2023/10/29 13:53:34;;;;;;;10.02;2.17;;;;;;;;;;5110118;28;20066;-82
2023/10/29 13:56:07;;;;;;;9.57;1.70;;;;;;;;;;5119466;27;20039;-81
2023/10/29 13:58:33;;;;;;;12.88;1.80;;;;;;;;;;5114153;27;20058;-82
2023/10/29 14:00:59;;;;;;;;;;;;;;;;;;5111718;27;20068;-83
2023/10/29 14:03:25;;;;;;;9.50;1.60;;;;;;;;;;5098250;28;19920;-81
2023/10/29 14:05:51;;;;;;;;;;;;;;;;;;5100896;28;20088;-82
2023/10/29 14:08:17;;;;;;;9.20;1.63;;;;;;;;;;5106573;28;19954;-82
2023/10/29 14:10:43;;;;;;;;;;;;;;;;;;5084576;28;20059;-81
2023/10/29 14:13:09;;;;;;;10.48;2.00;;;;;;;;;;5128110;27;19930;-82
2023/10/29 14:15:35;;;;;;;;;;;;;;;;;;5129820;27;20047;-82
2023/10/29 14:18:01;;;;;;;6.00;1.73;;;;;;;;;;5118519;27;19920;-83
2023/10/29 14:20:27;;;;;;;;;;;;;;;;;;5111671;28;20053;-82
2023/10/29 14:22:53;;;;;;;7.07;1.63;;;;;;;;;;5102614;28;20010;-82
2023/10/29 14:25:19;;;;;;;11.38;1.70;;;;;;;;;;5110335;28;20404;-82
2023/10/29 14:27:45;;;;;;;10.55;1.75;;;;;;;;;;5107514;28;20134;-81
2023/10/29 14:30:12;;;;;;;;;;;;;;;;;;5131896;28;20041;-79
2023/10/29 14:32:39;;;;;;;6.95;1.70;;;;;;;;;;5130262;28;19919;-80
2023/10/29 14:35:05;;;;;;;11.07;1.60;;;;;;;;;;5110981;28;20072;-81
2023/10/29 14:37:32;;;;;;;13.70;2.08;;;;;;;;;;5105453;28;20075;-81
2023/10/29 14:39:58;;;;;;;7.32;1.83;;;;;;;;;;5103465;28;20501;-85
2023/10/29 14:42:25;;;;;;;;;;;;;;;;;;5099941;28;20083;-82
2023/10/29 14:44:51;;;;;;;11.82;1.95;;;;;;;;;;5097716;28;20003;-81
2023/10/29 14:47:18;;;;;;;6.57;1.50;;;;;;;;;;5100288;28;20043;-81
2023/10/29 14:49:43;;;;;;;;;;;;;;;;;;5098839;28;20100;-83
2023/10/29 14:52:10;;;;;;;11.35;1.80;;;;;;;;;;5100778;28;20400;-83
2023/10/29 14:54:35;;;;;;;;;;;;;;;;;;5080017;28;20048;-83
2023/10/29 14:57:02;;;;;;;8.50;1.35;;;;;;;;;;5129540;28;19919;-83
2023/10/29 14:59:28;;;;;;;;;;;;;;;;;;5126841;28;20071;-82
2023/10/29 15:01:55;;;;;;;13.52;1.67;;;;;;;;;;5092001;28;19924;-82
2023/10/29 15:04:22;;;;;;;8.23;1.40;;;;;;;;;;5098479;27;20046;-83
2023/10/29 15:06:48;;;;;;;6.25;1.63;;;;;;;;;;5102978;28;20074;-83